createdAt,value
2023-04-17T00:01:21.827Z,56.60
2023-04-17T00:03:53.846Z,51.47
2023-04-17T00:06:23.372Z,43.00
2023-04-17T00:08:53.138Z,47.88
2023-04-17T00:11:22.544Z,56.28
2023-04-17T00:13:52.145Z,50.15
2023-04-17T00:16:21.437Z,49.03
2023-04-17T00:18:50.917Z,46.80
2023-04-17T00:21:20.263Z,46.53
2023-04-17T00:23:49.922Z,52.65
2023-04-17T00:26:20.811Z,49.15
2023-04-17T00:28:51.545Z,55.95
2023-04-17T00:31:20.886Z,58.90
2023-04-17T00:33:50.599Z,58.25
2023-04-17T00:36:19.677Z,48.70
2023-04-17T00:38:49.543Z,49.25
2023-04-17T00:41:19.212Z,44.05
2023-04-17T00:43:48.395Z,39.67
2023-04-17T00:46:18.642Z,36.70
2023-04-17T00:48:48.785Z,31.27
2023-04-17T00:51:20.368Z,31.92
2023-04-17T00:53:50.377Z,30.02
2023-04-17T00:56:19.767Z,29.58
2023-04-17T00:58:50.505Z,29.08
2023-04-17T01:01:20.191Z,28.75
2023-04-17T01:03:52.228Z,23.13
2023-04-17T01:06:21.800Z,21.92
2023-04-17T01:08:50.931Z,25.73
2023-04-17T01:11:20.317Z,23.30
2023-04-17T01:13:51.328Z,27.70
2023-04-17T01:16:21.220Z,32.05
2023-04-17T01:18:50.569Z,29.45
2023-04-17T01:21:20.336Z,23.77
2023-04-17T01:23:54.084Z,36.58
2023-04-17T01:26:33.720Z,30.55
2023-04-17T01:29:03.594Z,30.30
2023-04-17T01:31:33.236Z,39.38
2023-04-17T01:34:02.975Z,33.20
2023-04-17T01:36:33.077Z,39.50
2023-04-17T01:39:02.312Z,37.50
2023-04-17T01:41:31.953Z,30.67
2023-04-17T01:44:01.780Z,32.22
2023-04-17T01:46:31.734Z,37.53
2023-04-17T01:49:01.138Z,33.53
2023-04-17T01:51:30.221Z,40.70
2023-04-17T01:54:02.277Z,44.50
2023-04-17T01:56:31.942Z,50.50
2023-04-17T01:59:01.745Z,47.85
2023-04-17T02:01:30.989Z,60.13
2023-04-17T02:04:00.595Z,67.05
2023-04-17T02:06:30.065Z,68.13
2023-04-17T02:09:00.357Z,67.53
2023-04-17T02:11:30.157Z,65.97
2023-04-17T02:13:59.475Z,68.85
2023-04-17T02:16:30.115Z,59.97
2023-04-17T02:19:00.173Z,64.40
2023-04-17T02:21:32.913Z,65.63
2023-04-17T02:24:02.657Z,50.92
2023-04-17T02:26:31.779Z,47.88
2023-04-17T02:29:01.358Z,46.25
2023-04-17T02:31:30.354Z,40.60
2023-04-17T02:33:59.610Z,40.88
2023-04-17T02:36:29.623Z,48.22
2023-04-17T02:38:59.130Z,45.38
2023-04-17T02:41:40.011Z,44.78
2023-04-17T02:44:10.967Z,44.17
2023-04-17T02:46:40.975Z,42.03
2023-04-17T02:49:11.754Z,40.15
2023-04-17T02:51:41.906Z,43.13
2023-04-17T02:54:11.975Z,38.30
2023-04-17T02:56:41.564Z,31.25
2023-04-17T02:59:11.114Z,25.83
2023-04-17T03:01:41.861Z,25.15
2023-04-17T03:04:11.199Z,23.40
2023-04-17T03:06:40.495Z,27.58
2023-04-17T03:09:13.430Z,24.30
2023-04-17T03:11:43.024Z,34.10
2023-04-17T03:14:12.816Z,24.65
2023-04-17T03:16:41.921Z,26.77
2023-04-17T03:19:11.826Z,28.98
2023-04-17T03:21:41.425Z,33.85
2023-04-17T03:24:14.106Z,40.08
2023-04-17T03:26:43.927Z,26.88
2023-04-17T03:29:18.445Z,30.50
2023-04-17T03:31:48.061Z,23.95
2023-04-17T03:34:22.922Z,25.85
2023-04-17T03:36:53.181Z,31.80
2023-04-17T03:39:23.216Z,32.20
2023-04-17T03:41:52.458Z,24.55
2023-04-17T03:44:21.852Z,30.95
2023-04-17T03:46:52.581Z,26.13
2023-04-17T03:49:22.084Z,27.98
2023-04-17T03:51:53.213Z,22.83
2023-04-17T03:54:24.029Z,19.85
2023-04-17T03:56:55.800Z,21.67
2023-04-17T03:59:25.860Z,21.60
2023-04-17T04:01:55.860Z,25.52
2023-04-17T04:04:26.996Z,19.70
2023-04-17T04:07:06.280Z,21.13
2023-04-17T04:09:36.787Z,20.88
2023-04-17T04:12:07.903Z,18.70
2023-04-17T04:14:42.339Z,15.30
2023-04-17T04:17:12.729Z,18.73
2023-04-17T04:19:44.032Z,21.50
2023-04-17T04:22:14.753Z,19.52
2023-04-17T04:24:50.850Z,17.40
2023-04-17T04:27:23.926Z,22.05
2023-04-17T04:30:00.334Z,18.23
2023-04-17T04:32:34.927Z,19.83
2023-04-17T04:35:05.767Z,21.95
2023-04-17T04:37:35.098Z,24.92
2023-04-17T04:40:12.781Z,17.25
2023-04-17T04:42:43.914Z,27.98
2023-04-17T04:45:18.542Z,17.58
2023-04-17T04:47:48.178Z,14.20
2023-04-17T04:50:17.690Z,18.10
2023-04-17T04:52:47.320Z,24.13
2023-04-17T04:55:31.538Z,23.70
2023-04-17T04:58:01.486Z,18.80
2023-04-17T05:00:31.012Z,21.88
2023-04-17T05:03:02.946Z,20.77
2023-04-17T05:05:32.942Z,25.83
2023-04-17T05:08:02.424Z,18.45
2023-04-17T05:13:07.347Z,17.52
2023-04-17T05:15:37.593Z,23.67
2023-04-17T06:18:42.311Z,19.20
2023-04-17T06:21:12.636Z,12.65
2023-04-17T06:23:41.776Z,12.50
2023-04-17T06:26:12.311Z,12.55
2023-04-17T06:28:42.150Z,14.70
2023-04-17T06:31:12.675Z,13.65
2023-04-17T06:33:41.976Z,11.82
2023-04-17T06:36:11.714Z,14.73
2023-04-17T06:38:57.670Z,13.00
2023-04-17T06:41:27.072Z,16.42
2023-04-17T06:43:56.071Z,17.38
2023-04-17T06:46:25.647Z,21.08
2023-04-17T06:48:59.005Z,14.27
2023-04-17T06:51:30.737Z,14.40
2023-04-17T06:54:00.547Z,16.27
2023-04-17T06:56:29.650Z,12.35
2023-04-17T06:58:59.832Z,10.88
2023-04-17T07:01:32.512Z,12.55
2023-04-17T07:04:02.532Z,11.40
2023-04-17T07:06:32.561Z,12.80
2023-04-17T07:09:03.405Z,14.43
2023-04-17T07:11:33.198Z,12.18
2023-04-17T07:14:02.619Z,12.48
2023-04-17T07:16:31.926Z,9.13
2023-04-17T07:19:01.017Z,12.57
2023-04-17T07:21:30.567Z,19.05
2023-04-17T07:24:00.478Z,10.45
2023-04-17T07:26:29.700Z,14.68
2023-04-17T07:28:59.030Z,13.10
2023-04-17T07:31:29.680Z,14.95
2023-04-17T07:33:58.781Z,12.55
2023-04-17T07:36:29.767Z,11.35
2023-04-17T07:38:59.179Z,11.30
2023-04-17T07:41:28.398Z,14.35
2023-04-17T07:43:58.989Z,22.30
2023-04-17T07:46:29.206Z,12.82
2023-04-17T07:48:58.281Z,10.73
2023-04-17T07:51:27.583Z,12.23
2023-04-17T07:57:27.561Z,18.15
2023-04-17T08:02:26.523Z,10.63
2023-04-17T08:04:56.837Z,18.52
2023-04-17T08:07:26.250Z,13.88
2023-04-17T08:09:55.261Z,20.73
2023-04-17T08:12:24.808Z,13.02
2023-04-17T08:14:53.844Z,13.70
2023-04-17T08:17:24.612Z,14.68
2023-04-17T08:19:58.649Z,12.13
2023-04-17T08:22:29.898Z,16.42
2023-04-17T08:24:59.173Z,11.80
2023-04-17T08:27:28.427Z,11.77
2023-04-17T08:29:58.290Z,14.13
2023-04-17T08:32:27.990Z,13.45
2023-04-17T08:34:59.923Z,11.45
2023-04-17T08:39:58.729Z,16.33
2023-04-17T08:42:30.155Z,17.45
2023-04-17T08:45:10.244Z,18.13
2023-04-17T08:47:44.827Z,15.65
2023-04-17T08:50:17.419Z,16.27
2023-04-17T08:52:48.299Z,11.35
2023-04-17T08:55:20.430Z,21.27
2023-04-17T08:58:05.219Z,15.20
2023-04-17T09:00:45.870Z,12.52
2023-04-17T09:03:16.719Z,17.63
2023-04-17T09:05:47.251Z,11.05
2023-04-17T09:08:27.174Z,9.07
2023-04-17T09:10:56.910Z,17.35
2023-04-17T09:13:28.572Z,17.55
2023-04-17T09:16:09.471Z,15.75
2023-04-17T09:18:40.787Z,18.15
2023-04-17T09:21:10.665Z,18.05
2023-04-17T09:24:00.659Z,14.68
2023-04-17T09:26:34.254Z,16.83
2023-04-17T09:29:14.908Z,12.35
2023-04-17T09:31:46.238Z,13.40
2023-04-17T09:34:17.553Z,17.67
2023-04-17T09:36:46.781Z,9.75
2023-04-17T09:39:21.698Z,12.05
2023-04-17T09:41:51.551Z,21.73
2023-04-17T09:44:31.275Z,13.98
2023-04-17T09:47:02.171Z,12.15
2023-04-17T09:49:43.419Z,10.77
2023-04-17T09:52:13.894Z,12.10
2023-04-17T09:54:43.852Z,14.85
2023-04-17T09:57:14.378Z,17.17
2023-04-17T09:59:50.067Z,9.15
2023-04-17T10:02:21.870Z,11.18
2023-04-17T10:04:51.900Z,12.35
2023-04-17T10:07:21.432Z,13.70
2023-04-17T10:09:50.705Z,21.02
2023-04-17T10:12:21.832Z,17.20
2023-04-17T10:14:53.366Z,16.85
2023-04-17T10:17:33.533Z,17.08
2023-04-17T10:20:24.388Z,12.90
2023-04-17T10:26:30.740Z,17.25
2023-04-17T10:29:00.613Z,21.08
2023-04-17T10:32:11.685Z,16.02
2023-04-17T10:34:43.850Z,11.93
2023-04-17T10:37:17.162Z,12.95
2023-04-17T10:42:34.016Z,13.77
2023-04-17T10:45:06.718Z,15.68
2023-04-17T10:47:37.017Z,12.18
2023-04-17T10:50:11.361Z,17.88
2023-04-17T10:52:43.005Z,13.20
2023-04-17T10:55:21.893Z,15.10
2023-04-17T10:58:13.450Z,14.25
2023-04-17T11:00:53.898Z,18.58
2023-04-17T11:03:25.048Z,8.10
2023-04-17T11:05:55.343Z,19.10
2023-04-17T11:08:26.005Z,20.98
2023-04-17T11:10:58.487Z,18.42
2023-04-17T11:13:27.998Z,14.20
2023-04-17T11:15:57.116Z,9.98
2023-04-17T11:18:27.850Z,11.85
2023-04-17T11:20:59.232Z,14.38
2023-04-17T11:23:35.334Z,23.10
2023-04-17T11:26:04.704Z,14.02
2023-04-17T11:28:33.948Z,22.58
2023-04-17T11:31:04.216Z,20.85
2023-04-17T11:33:39.804Z,15.02
2023-04-17T11:36:10.206Z,15.75
2023-04-17T11:38:49.256Z,21.63
2023-04-17T11:41:19.094Z,20.17
2023-04-17T11:43:48.598Z,22.13
2023-04-17T11:46:20.501Z,15.95
2023-04-17T11:48:51.632Z,23.08
2023-04-17T11:51:21.311Z,14.05
2023-04-17T11:53:51.421Z,21.92
2023-04-17T11:56:22.217Z,16.88
2023-04-17T11:58:53.672Z,17.70
2023-04-17T12:01:28.776Z,26.05
2023-04-17T12:04:00.302Z,17.00
2023-04-17T12:06:39.861Z,19.88
2023-04-17T12:09:25.726Z,15.50
2023-04-17T12:15:22.790Z,14.30
2023-04-17T12:17:52.114Z,18.90
2023-04-17T12:20:21.519Z,22.10
2023-04-17T12:22:51.186Z,24.70
2023-04-17T12:25:20.256Z,14.93
2023-04-17T12:27:49.574Z,19.70
2023-04-17T12:30:18.825Z,18.85
2023-04-17T12:32:51.818Z,17.52
2023-04-17T12:35:22.946Z,21.35
2023-04-17T12:37:52.758Z,22.23
2023-04-17T12:40:24.939Z,19.98
2023-04-17T12:42:54.516Z,19.48
2023-04-17T12:45:23.672Z,31.33
2023-04-17T12:47:53.415Z,24.00
2023-04-17T12:50:22.477Z,21.17
2023-04-17T12:52:51.964Z,17.08
2023-04-17T12:55:21.221Z,27.48
2023-04-17T12:57:50.702Z,33.38
2023-04-17T13:00:20.293Z,26.42
2023-04-17T13:02:50.300Z,23.48
2023-04-17T13:05:20.331Z,30.40
2023-04-17T13:07:50.549Z,23.52
2023-04-17T13:10:20.368Z,20.42
2023-04-17T13:12:50.600Z,25.73
2023-04-17T13:15:20.089Z,22.63
2023-04-17T13:17:50.635Z,26.05
2023-04-17T13:20:20.291Z,29.67
2023-04-17T13:22:49.443Z,29.70
2023-04-17T13:25:18.996Z,20.63
2023-04-17T13:27:50.893Z,23.52
2023-04-17T13:30:20.151Z,23.65
2023-04-17T13:32:50.489Z,34.75
2023-04-17T13:35:19.920Z,29.70
2023-04-17T13:37:49.179Z,29.17
2023-04-17T13:40:18.606Z,23.48
2023-04-17T13:42:47.770Z,27.80
2023-04-17T13:45:17.319Z,25.10
2023-04-17T13:47:47.237Z,33.05
2023-04-17T13:50:16.534Z,34.60
2023-04-17T13:52:46.002Z,32.47
2023-04-17T13:55:18.401Z,29.02
2023-04-17T13:57:47.878Z,33.08
2023-04-17T14:00:19.424Z,38.15
2023-04-17T14:02:49.504Z,33.10
2023-04-17T14:05:18.950Z,32.92
2023-04-17T14:07:58.507Z,34.78
2023-04-17T14:10:27.626Z,24.80
2023-04-17T14:12:57.331Z,34.78
2023-04-17T14:15:27.200Z,33.40
2023-04-17T14:17:58.965Z,28.48
2023-04-17T14:20:28.550Z,25.55
2023-04-17T14:22:57.616Z,35.28
2023-04-17T14:25:58.536Z,26.75
2023-04-17T14:28:28.129Z,32.10
2023-04-17T14:30:57.808Z,32.58
2023-04-17T14:33:27.296Z,42.35
2023-04-17T14:35:58.251Z,25.70
2023-04-17T14:38:27.936Z,28.80
2023-04-17T14:40:57.915Z,39.70
2023-04-17T14:43:27.712Z,30.70
2023-04-17T14:45:58.179Z,25.45
2023-04-17T14:48:27.473Z,32.47
2023-04-17T14:50:56.680Z,24.90
2023-04-17T14:53:26.492Z,31.13
2023-04-17T14:55:55.949Z,31.58
2023-04-17T14:58:25.149Z,29.27
2023-04-17T15:00:54.682Z,37.35
2023-04-17T15:03:24.915Z,30.27
2023-04-17T15:05:54.515Z,39.38
2023-04-17T15:08:24.417Z,32.78
2023-04-17T15:10:53.530Z,29.75
2023-04-17T15:13:22.898Z,28.38
2023-04-17T15:15:52.387Z,29.83
2023-04-17T15:18:21.566Z,27.58
2023-04-17T15:20:51.583Z,29.38
2023-04-17T15:23:22.210Z,27.38
2023-04-17T15:25:51.973Z,28.88
2023-04-17T15:28:21.918Z,23.35
2023-04-17T15:30:51.565Z,32.67
2023-04-17T15:33:21.131Z,24.90
2023-04-17T15:35:56.821Z,25.85
2023-04-17T15:38:26.980Z,39.38
2023-04-17T15:40:57.164Z,25.70
2023-04-17T15:43:26.932Z,18.48
2023-04-17T15:45:56.768Z,18.05
2023-04-17T15:48:26.249Z,30.40
2023-04-17T15:50:55.455Z,20.77
2023-04-17T15:53:25.523Z,21.42
2023-04-17T15:55:55.007Z,23.65
2023-04-17T15:58:24.308Z,18.73
2023-04-17T16:00:53.993Z,23.90
2023-04-17T16:03:23.959Z,21.42
2023-04-17T16:05:54.966Z,18.65
2023-04-17T16:08:24.361Z,23.08
2023-04-17T16:10:53.666Z,19.92
2023-04-17T16:13:23.147Z,23.48
2023-04-17T16:15:52.827Z,21.20
2023-04-17T16:18:22.362Z,21.17
2023-04-17T16:20:51.697Z,22.13
2023-04-17T16:23:21.767Z,20.58
2023-04-17T16:25:52.505Z,33.28
2023-04-17T16:28:22.110Z,26.98
2023-04-17T16:30:52.030Z,23.80
2023-04-17T16:33:21.350Z,24.50
2023-04-17T16:35:50.702Z,19.92
2023-04-17T16:38:19.868Z,27.73
2023-04-17T16:40:49.365Z,19.50
2023-04-17T16:43:18.464Z,19.38
2023-04-17T16:45:48.050Z,20.98
2023-04-17T16:48:17.771Z,22.75
2023-04-17T16:50:47.836Z,23.60
2023-04-17T16:53:17.146Z,25.42
2023-04-17T16:55:47.404Z,25.27
2023-04-17T16:58:16.555Z,35.10
2023-04-17T17:00:46.260Z,19.33
2023-04-17T17:03:16.029Z,26.38
2023-04-17T17:05:47.031Z,17.45
2023-04-17T17:08:17.707Z,21.58
2023-04-17T17:10:50.579Z,28.33
2023-04-17T17:15:49.600Z,22.98
2023-04-17T17:18:19.512Z,25.42
2023-04-17T17:20:55.445Z,25.00
2023-04-17T17:23:25.582Z,25.30
2023-04-17T17:25:55.365Z,37.88
2023-04-17T17:28:24.972Z,23.45
2023-04-17T17:31:02.243Z,28.80
2023-04-17T17:33:32.389Z,28.52
2023-04-17T17:36:02.226Z,20.73
2023-04-17T17:38:33.824Z,19.13
2023-04-17T17:41:05.782Z,33.83
2023-04-17T17:43:35.906Z,25.00
2023-04-17T17:46:05.315Z,25.67
2023-04-17T17:48:36.789Z,24.88
2023-04-17T17:51:06.463Z,23.52
2023-04-17T17:53:35.747Z,22.63
2023-04-17T17:56:05.344Z,28.52
2023-04-17T17:58:34.729Z,23.92
2023-04-17T18:01:04.120Z,27.20
2023-04-17T18:03:34.174Z,34.17
2023-04-17T18:06:03.576Z,20.73
2023-04-17T18:08:33.529Z,27.60
2023-04-17T18:11:04.639Z,29.38
2023-04-17T18:13:34.329Z,24.60
2023-04-17T18:16:06.610Z,18.77
2023-04-17T18:18:36.580Z,24.52
2023-04-17T18:21:10.359Z,30.80
2023-04-17T18:23:40.258Z,26.48
2023-04-17T18:26:09.324Z,26.42
2023-04-17T18:28:38.685Z,23.95
2023-04-17T18:31:08.411Z,30.67
2023-04-17T18:33:38.084Z,41.58
2023-04-17T18:36:08.531Z,36.35
2023-04-17T18:38:38.187Z,36.58
2023-04-17T18:41:07.272Z,33.75
2023-04-17T18:43:37.214Z,42.72
2023-04-17T18:46:08.627Z,40.47
2023-04-17T18:48:38.788Z,33.80
2023-04-17T18:51:18.494Z,36.83
2023-04-17T18:53:48.225Z,49.35
2023-04-17T18:56:19.384Z,41.55
2023-04-17T18:58:49.352Z,44.35
2023-04-17T19:01:19.585Z,36.17
2023-04-17T19:03:50.626Z,42.33
2023-04-17T19:06:20.625Z,41.17
2023-04-17T19:08:50.829Z,38.50
2023-04-17T19:11:20.727Z,44.22
2023-04-17T19:13:50.349Z,43.60
2023-04-17T19:16:20.145Z,39.90
2023-04-17T19:18:50.574Z,41.92
2023-04-17T19:21:19.677Z,35.53
2023-04-17T19:23:49.144Z,39.35
2023-04-17T19:26:19.156Z,45.85
2023-04-17T19:28:48.495Z,34.08
2023-04-17T19:31:18.530Z,37.97
2023-04-17T19:33:48.481Z,40.63
2023-04-17T19:36:18.196Z,39.50
2023-04-17T19:38:47.647Z,43.05
2023-04-17T19:41:22.003Z,50.95
2023-04-17T19:43:52.822Z,42.97
2023-04-17T19:46:24.863Z,44.90
2023-04-17T19:48:54.671Z,40.05
2023-04-17T19:51:23.938Z,38.33
2023-04-17T19:53:54.724Z,38.60
2023-04-17T19:56:24.165Z,47.22
2023-04-17T19:58:53.878Z,48.13
2023-04-17T20:01:23.363Z,44.47
2023-04-17T20:03:52.884Z,42.95
2023-04-17T20:06:22.828Z,48.88
2023-04-17T20:08:52.390Z,54.20
2023-04-17T20:11:22.970Z,43.22
2023-04-17T20:13:53.565Z,37.45
2023-04-17T20:16:24.950Z,47.03
2023-04-17T20:18:54.560Z,39.03
2023-04-17T20:21:24.760Z,41.17
2023-04-17T20:23:56.410Z,35.22
2023-04-17T20:26:26.840Z,37.20
2023-04-17T20:28:56.485Z,36.65
2023-04-17T20:31:25.665Z,40.08
2023-04-17T20:33:54.932Z,29.20
2023-04-17T20:36:24.320Z,32.00
2023-04-17T20:38:53.752Z,37.20
2023-04-17T20:41:22.925Z,41.63
2023-04-17T20:44:03.184Z,32.92
2023-04-17T20:46:32.762Z,32.00
2023-04-17T20:49:02.851Z,33.13
2023-04-17T20:51:32.999Z,35.17
2023-04-17T20:54:02.547Z,30.23
2023-04-17T20:56:31.924Z,30.77
2023-04-17T20:59:01.188Z,39.50
2023-04-17T21:01:30.593Z,31.35
2023-04-17T21:03:59.990Z,35.88
2023-04-17T21:06:29.486Z,31.30
2023-04-17T21:08:59.398Z,33.45
2023-04-17T21:11:28.986Z,37.85
2023-04-17T21:13:59.952Z,34.88
2023-04-17T21:16:29.871Z,31.45
2023-04-17T21:18:59.607Z,33.63
2023-04-17T21:21:28.593Z,33.63
2023-04-17T21:23:58.190Z,40.20
2023-04-17T21:26:27.922Z,38.83
2023-04-17T21:28:58.700Z,33.38
2023-04-17T21:31:28.182Z,42.58
2023-04-17T21:33:57.395Z,38.45
2023-04-17T21:36:28.236Z,39.20
2023-04-17T21:38:57.446Z,38.45
2023-04-17T21:41:27.476Z,37.53
2023-04-17T21:43:57.390Z,48.50
2023-04-17T21:46:26.689Z,36.97
2023-04-17T21:48:57.030Z,32.53
2023-04-17T21:51:26.977Z,43.45
2023-04-17T21:53:56.757Z,36.50
2023-04-17T21:56:25.861Z,41.70
2023-04-17T21:58:55.228Z,39.55
2023-04-17T22:01:24.789Z,38.58
2023-04-17T22:03:54.652Z,39.50
2023-04-17T22:06:23.743Z,42.75
2023-04-17T22:08:53.615Z,36.50
2023-04-17T22:11:22.758Z,34.92
2023-04-17T22:13:52.059Z,42.22
2023-04-17T22:16:21.768Z,43.88
2023-04-17T22:18:51.605Z,44.45
2023-04-17T22:21:20.748Z,44.97
2023-04-17T22:23:50.116Z,40.33
2023-04-17T22:26:19.336Z,46.72
2023-04-17T22:28:49.785Z,45.05
2023-04-17T22:31:20.581Z,39.25
2023-04-17T22:33:50.462Z,49.15
2023-04-17T22:36:20.424Z,40.85
2023-04-17T22:38:50.052Z,50.83
2023-04-17T22:41:19.087Z,42.90
2023-04-17T22:43:52.143Z,48.78
2023-04-17T22:46:21.593Z,58.10
2023-04-17T22:48:50.634Z,43.45
2023-04-17T22:51:20.180Z,45.58
2023-04-17T22:53:49.608Z,50.40
2023-04-17T22:56:18.949Z,51.80
2023-04-17T22:58:48.579Z,52.47
2023-04-17T23:01:17.715Z,58.15
2023-04-17T23:03:47.342Z,60.13
2023-04-17T23:06:16.633Z,54.40
2023-04-17T23:08:45.785Z,64.32
2023-04-17T23:11:15.367Z,64.82
2023-04-17T23:13:45.275Z,57.92
2023-04-17T23:16:16.625Z,72.03
2023-04-17T23:18:47.553Z,73.70
2023-04-17T23:21:17.112Z,60.90
2023-04-17T23:23:48.327Z,61.05
2023-04-17T23:26:18.990Z,62.33
2023-04-17T23:28:48.432Z,57.30
2023-04-17T23:31:17.627Z,62.53
2023-04-17T23:33:47.123Z,63.53
2023-04-17T23:36:16.512Z,64.50
2023-04-17T23:38:46.014Z,62.67
2023-04-17T23:41:15.465Z,66.25
2023-04-17T23:43:44.789Z,64.20
2023-04-17T23:46:14.253Z,63.22
2023-04-17T23:48:44.496Z,58.03
2023-04-17T23:51:13.912Z,49.25
2023-04-17T23:53:44.009Z,51.42
2023-04-17T23:56:13.509Z,57.67
2023-04-17T23:58:42.634Z,59.05
